Flight Track Log - Related Links

Times and Time Zones

All times are in EDT time to prevent confusion due to time zone crossing. See the UAL395 flight status page for this flight to view local times or setup timezone preferences in your user account.

Time Position Orientation Groundspeed Altitude Reporting Facility
EDT Latitude Longitude Course Direction KTS MPH feet Rate Location/Type
Sun 10:27:04 PM 38.9500 -77.5000 270° West 173 199 1,300  Level Potomac TRACON
Sun 10:28:04 PM 38.9333 -77.5833 256° West 237 273 3,400 1,850 Climbing Potomac TRACON
Sun 10:29:00 PM 39.0781 -77.8355 270° West  Level Estimated
Sun 10:29:04 PM 38.9000 -77.6667 243° Southwest 265 305 5,000  Level Potomac TRACON
Sun 10:30:00 PM 39.1214 -77.9611 282° West  Level Estimated
Sun 10:30:04 PM 38.8833 -77.7667 258° West 282 325 6,900  Level Potomac TRACON
Sun 10:31:00 PM 39.1645 -78.0867 270° West  Level Estimated
Sun 10:31:04 PM 38.8833 -77.8667 270° West 286 329 9,900  Level Potomac TRACON
Sun 10:32:00 PM 39.2075 -78.2125 270° West  Level Estimated
Sun 10:32:18 PM 38.8853 -77.9892 271° West 319 367 12,100  Level Washington Center
Sun 10:33:19 PM 38.9228 -78.1025 293° West 326 375 14,600 2,678 Climbing Washington Center
Sun 10:34:19 PM 38.9575 -78.2211 291° West 350 403 17,500 2,746 Climbing Washington Center
Sun 10:35:17 PM 38.9650 -78.3547 274° West 361 415 20,000 2,542 Climbing Washington Center
Sun 10:36:17 PM 38.9681 -78.4911 272° West 377 434 22,500 2,182 Climbing Washington Center
Sun 10:37:18 PM 38.9747 -78.6461 273° West 393 452 24,400 1,934 Climbing Washington Center
Sun 10:38:18 PM 38.9753 -78.7825 270° West 407 468 26,400 1,750 Climbing Washington Center
Sun 10:39:18 PM 38.9817 -78.9322 273° West 418 481 27,900 1,500 Climbing Washington Center
Sun 10:40:18 PM 38.9836 -79.0844 271° West 425 489 29,400 1,109 Climbing Washington Center
Sun 10:41:17 PM 38.9872 -79.2422 272° West 430 495 30,100 1,008 Climbing Washington Center
Sun 10:42:17 PM 38.9925 -79.4083 272° West 452 520 31,400 1,438 Climbing Washington Center
Sun 10:43:18 PM 38.9956 -79.5686 271° West 457 526 33,000 1,537 Climbing Washington Center
Sun 10:44:18 PM 39.0000 -79.7506 272° West 463 533 34,500 1,487 Climbing Washington Center
Sun 10:45:15 PM 39.0006 -79.8994 270° West 445 512 35,900 763 Climbing Indianapolis Center
Sun 10:46:16 PM 39.0025 -80.0497 271° West 438 504 36,000 49 Climbing Indianapolis Center
Sun 10:47:17 PM 39.0047 -80.2056 271° West 432 497 36,000  Level Indianapolis Center
Sun 10:48:17 PM 39.0078 -80.3639 271° West 441 507 36,000  Level Indianapolis Center
Sun 10:49:18 PM 39.0492 -80.5106 290° West 442 509 36,000  Level Indianapolis Center
Sun 10:50:19 PM 39.1147 -80.6475 302° West 449 517 36,000  Level Indianapolis Center
Sun 10:51:20 PM 39.1789 -80.7847 301° West 448 516 36,000  Level Indianapolis Center
Sun 10:52:20 PM 39.2386 -80.9233 299° West 446 513 36,000  Level Indianapolis Center
Sun 10:53:21 PM 39.2983 -81.0606 299° West 443 510 36,000  Level Indianapolis Center
Sun 10:54:22 PM 39.3581 -81.1958 300° West 437 503 36,000  Level Indianapolis Center
Sun 10:55:22 PM 39.4153 -81.3283 299° West 428 493 36,000  Level Indianapolis Center
Sun 10:56:23 PM 39.4731 -81.4614 299° West 426 490 36,000  Level Indianapolis Center
Sun 10:57:24 PM 39.5292 -81.5961 298° West 426 490 36,000  Level Indianapolis Center
Sun 10:58:25 PM 39.5975 -81.7558 299° West 423 487 36,000  Level Indianapolis Center
Sun 10:59:25 PM 39.6539 -81.8889 299° West 422 486 36,000  Level Indianapolis Center
Sun 11:00:26 PM 39.7106 -82.0225 299° West 424 488 36,000  Level Indianapolis Center
Sun 11:01:27 PM 39.7622 -82.1453 299° West 426 490 36,000  Level Indianapolis Center
Sun 11:02:27 PM 39.8181 -82.2786 299° West 424 488 36,000  Level Indianapolis Center
Sun 11:03:28 PM 39.8750 -82.4125 299° West 424 488 36,000  Level Indianapolis Center
Sun 11:04:29 PM 39.9308 -82.5469 298° West 423 487 36,000  Level Indianapolis Center
Sun 11:05:30 PM 39.9872 -82.6811 299° West 424 488 36,000  Level Indianapolis Center
Sun 11:06:30 PM 40.0417 -82.8153 298° West 422 486 36,000  Level Indianapolis Center
Sun 11:07:31 PM 40.1069 -82.9753 298° West 420 483 36,000  Level Indianapolis Center
Sun 11:08:32 PM 40.1611 -83.1083 298° West 420 483 36,000  Level Indianapolis Center
Sun 11:09:32 PM 40.2156 -83.2406 298° West 418 481 36,000  Level Indianapolis Center
Sun 11:10:33 PM 40.2686 -83.3733 298° West 416 479 36,000  Level Indianapolis Center
Sun 11:11:34 PM 40.3222 -83.5058 298° West 416 479 36,000  Level Indianapolis Center
Sun 11:12:34 PM 40.3753 -83.6386 298° West 415 478 36,000  Level Indianapolis Center
Sun 11:13:35 PM 40.4283 -83.7706 298° West 412 474 36,000  Level Indianapolis Center
Sun 11:14:36 PM 40.4800 -83.9019 297° West 408 470 36,000  Level Indianapolis Center
Sun 11:15:36 PM 40.5322 -84.0331 298° West 408 470 36,000  Level Indianapolis Center
Sun 11:16:37 PM 40.5833 -84.1636 297° West 404 465 36,000  Level Indianapolis Center
Sun 11:17:38 PM 40.6300 -84.2967 295° West 403 464 36,000  Level Indianapolis Center
Sun 11:18:38 PM 40.6728 -84.4314 293° West 402 463 36,000  Level Indianapolis Center
Sun 11:19:39 PM 40.7158 -84.5672 293° West 402 463 36,000  Level Indianapolis Center
Sun 11:20:40 PM 40.7686 -84.7300 293° West 403 464 36,000  Level Indianapolis Center
Sun 11:21:40 PM 40.8128 -84.8639 294° West 400 460 36,000  Level Indianapolis Center
Sun 11:22:41 PM 40.8508 -84.9867 292° West 398 458 36,000  Level Indianapolis Center
Sun 11:23:41 PM 40.8936 -85.1219 293° West 400 460 36,000  Level Indianapolis Center
Sun 11:24:52 PM 40.9464 -85.2850 293° West 400 460 36,000  Level Chicago Center
Sun 11:25:52 PM 40.9894 -85.4192 293° West 398 458 36,000  Level Chicago Center
Sun 11:26:53 PM 41.0308 -85.5553 292° West 398 458 36,000 -446 Level Chicago Center
Sun 11:27:53 PM 41.0725 -85.6903 292° West 397 457 35,100 -2,132 Descending Chicago Center
Sun 11:28:54 PM 41.1133 -85.8269 292° West 398 458 31,700 -2,678 Descending Chicago Center
Sun 11:29:54 PM 41.1581 -85.9681 293° West 412 474 29,700 -2,033 Descending Chicago Center
Sun 11:30:55 PM 41.1992 -86.1031 292° West 399 459 27,600 -1,884 Descending Chicago Center
Sun 11:31:55 PM 41.2383 -86.2328 292° West 386 444 25,900 -1,736 Descending Chicago Center
Sun 11:32:56 PM 41.2761 -86.3550 292° West 367 422 24,100 -1,884 Descending Chicago Center
Sun 11:33:56 PM 41.3111 -86.4747 291° West 351 404 22,100 -2,132 Descending Chicago Center
Sun 11:34:57 PM 41.3464 -86.5953 291° West 349 402 19,800 -2,132 Descending Chicago Center
Sun 11:35:57 PM 41.3847 -86.7167 293° West 354 407 17,800 -1,636 Descending Chicago Center
Sun 11:36:58 PM 41.4192 -86.8297 292° West 347 399 16,500 -1,686 Descending Chicago Center
Sun 11:37:58 PM 41.4594 -86.9653 292° West 333 383 14,400 -1,983 Descending Chicago Center
Sun 11:38:59 PM 41.4917 -87.0769 291° West 326 375 12,500 -1,190 Descending Chicago Center
Sun 11:39:59 PM 41.5297 -87.1828 296° West 319 367 12,000 -248 Descending Chicago Center
Sun 11:41:00 PM 41.5889 -87.2728 311° West 323 372 12,000  Level Chicago Center
Sun 11:42:00 PM 41.6464 -87.3636 310° West 322 371 12,000  Level Chicago Center
Sun 11:43:00 PM 41.7097 -87.4453 316° Northwest 339 390 12,000 -298 Level Chicago Center
Sun 11:44:01 PM 41.7892 -87.4844 340° North 311 358 11,400 -1,339 Descending Chicago Center
Sun 11:45:01 PM 41.8644 -87.5181 342° North 293 337 9,300 -2,132 Descending Chicago Center
Sun 11:46:02 PM 41.9356 -87.5536 340° North 279 321 7,100 -2,132 Descending Chicago Center
Sun 11:47:02 PM 41.9764 -87.6200 310° West 262 302 5,000 -2,313 Descending Chicago Center
Sun 11:47:38 PM 41.9667 -87.7000 261° West 261 300 3,400 -1,706 Descending Chicago TRACON
Sun 11:48:44 PM 41.9667 -87.7833 270° West 205 236 2,100 -1,000 Descending Chicago TRACON
Sun 11:49:44 PM 41.9667 -87.8500 270° West 149 171 1,300 -800 Descending Chicago TRACON

Login

Don't have an account? Register now (free) for customized features, flight alerts, and more!